Time;durP1;ratioP1;P1;durP2;ratioP2;P2;SDS_P1;SDS_P2;PMS_P1;PMS_P2;Temp;Humidity;BMP_temperature;BMP_pressure;BME280_temperature;BME280_humidity;BME280_pressure;Samples;Min_cycle;Max_cycle;Signal;HPM_P1;HPM_P2
2021/12/01 00:02:17;;;;;;;2.28;2.00;;;3.20;99.90;;;;;;5074461;28;20124;-74
2021/12/01 00:04:49;;;;;;;2.50;1.85;;;3.20;99.90;;;;;;5074236;28;20125;-73
2021/12/01 00:07:21;;;;;;;2.30;2.03;;;3.30;99.90;;;;;;5073077;28;20059;-75
2021/12/01 00:09:54;;;;;;;2.72;2.00;;;3.30;99.90;;;;;;5057312;28;20135;-74
2021/12/01 00:12:26;;;;;;;1.90;1.70;;;3.30;99.90;;;;;;5072853;28;20044;-73
2021/12/01 00:14:52;;;;;;;2.03;1.77;;;3.30;99.90;;;;;;5072705;28;20068;-74
2021/12/01 00:17:25;;;;;;;1.85;1.60;;;3.30;99.90;;;;;;5073035;28;20044;-74
2021/12/01 00:19:53;;;;;;;2.13;1.67;;;3.30;99.90;;;;;;5072952;28;20072;-72
2021/12/01 00:22:26;;;;;;;2.00;1.65;;;3.40;99.90;;;;;;5074106;28;20465;-73
2021/12/01 00:24:58;;;;;;;2.30;2.10;;;3.40;99.90;;;;;;5077188;28;20043;-73
2021/12/01 00:27:29;;;;;;;3.78;1.95;;;3.40;99.90;;;;;;5059678;28;20080;-73
2021/12/01 00:29:57;;;;;;;2.78;2.13;;;3.30;99.90;;;;;;5073095;28;20071;-74
2021/12/01 00:32:29;;;;;;;2.25;1.88;;;3.40;99.90;;;;;;5072497;28;20127;-73
2021/12/01 00:34:58;;;;;;;2.55;2.33;;;3.40;99.90;;;;;;5072364;28;20162;-74
2021/12/01 00:37:25;;;;;;;2.72;2.30;;;3.40;99.90;;;;;;5072689;28;20499;-74
2021/12/01 00:39:57;;;;;;;2.10;1.58;;;3.40;99.90;;;;;;5056652;28;20040;-74
2021/12/01 00:42:28;;;;;;;2.20;2.00;;;3.40;99.90;;;;;;5056468;28;20062;-74
2021/12/01 00:44:58;;;;;;;2.88;1.90;;;3.50;99.90;;;;;;5073368;28;20187;-74
2021/12/01 00:47:43;;;;;;;4.43;2.13;;;3.50;99.90;;;;;;5072566;28;20077;-74
2021/12/01 00:50:12;;;;;;;2.28;2.08;;;3.50;99.90;;;;;;5072405;28;20147;-72
2021/12/01 00:52:39;;;;;;;2.33;2.13;;;3.50;99.90;;;;;;5073383;28;20123;-73
2021/12/01 00:55:11;;;;;;;2.80;2.13;;;3.50;99.90;;;;;;5072103;28;20036;-74
2021/12/01 00:57:37;;;;;;;3.30;2.60;;;3.50;99.90;;;;;;5071567;28;20033;-74
2021/12/01 01:00:07;;;;;;;2.60;2.40;;;3.60;99.90;;;;;;5072125;28;20076;-74
2021/12/01 01:02:36;;;;;;;2.17;1.95;;;3.50;99.90;;;;;;5072073;28;20148;-74
2021/12/01 01:05:08;;;;;;;;;;;3.60;99.90;;;;;;5056402;28;20072;-74
2021/12/01 01:07:35;;;;;;;2.67;2.25;;;3.60;99.90;;;;;;5071986;28;19967;-75
2021/12/01 01:10:16;;;;;;;3.05;2.15;;;3.60;99.90;;;;;;5073313;28;20119;-74
2021/12/01 01:18:28;;;;;;;2.38;1.95;;;3.60;99.90;;;;;;5071854;28;20037;-73
2021/12/01 01:20:55;;;;;;;2.38;2.00;;;3.60;99.90;;;;;;5071760;28;20033;-74
2021/12/01 01:23:22;;;;;;;2.17;1.80;;;3.60;99.90;;;;;;5071761;28;20072;-74
2021/12/01 01:25:54;;;;;;;2.40;2.13;;;3.60;99.90;;;;;;5071740;28;20047;-74
2021/12/01 01:28:26;;;;;;;4.35;2.00;;;3.70;99.90;;;;;;5072972;28;20044;-74
2021/12/01 01:30:54;;;;;;;2.40;2.00;;;3.70;99.90;;;;;;5071437;28;20128;-72
2021/12/01 01:33:22;;;;;;;2.30;1.83;;;3.70;99.90;;;;;;5071484;28;20133;-74
2021/12/01 01:35:49;;;;;;;2.00;1.80;;;3.70;99.90;;;;;;5072313;28;20116;-72
2021/12/01 01:38:21;;;;;;;2.97;2.22;;;3.70;99.90;;;;;;5071421;28;20036;-73
2021/12/01 01:40:53;;;;;;;1.95;1.60;;;3.70;99.90;;;;;;5071142;28;20147;-75
2021/12/01 01:43:25;;;;;;;1.65;1.52;;;3.70;99.90;;;;;;5071377;28;20044;-74
2021/12/01 01:45:57;;;;;;;4.35;1.75;;;3.70;99.90;;;;;;5070982;28;20135;-74
2021/12/01 01:48:32;;;;;;;2.00;1.70;;;3.70;99.90;;;;;;5055354;28;20471;-74
2021/12/01 01:51:05;;;;;;;2.22;1.70;;;3.70;99.90;;;;;;5070932;28;20037;-73
2021/12/01 01:53:37;;;;;;;1.88;1.40;;;3.70;99.90;;;;;;5071037;28;20507;-74
2021/12/01 01:56:10;;;;;;;1.75;1.30;;;3.80;99.90;;;;;;5071995;28;20435;-75
2021/12/01 01:58:41;;;;;;;2.08;1.42;;;3.70;99.90;;;;;;5071167;28;20044;-74
2021/12/01 02:01:14;;;;;;;1.17;1.08;;;3.80;99.90;;;;;;5070553;28;20041;-73
2021/12/01 02:03:44;;;;;;;1.80;1.33;;;3.80;99.90;;;;;;5069794;28;20071;-74
2021/12/01 02:06:12;;;;;;;1.75;1.20;;;3.90;99.90;;;;;;5070409;28;20127;-73
2021/12/01 02:08:45;;;;;;;1.98;1.30;;;3.90;99.90;;;;;;5070727;28;20557;-74
2021/12/01 02:11:19;;;;;;;1.60;1.40;;;3.90;99.90;;;;;;5054894;28;20143;-72
2021/12/01 02:13:51;;;;;;;;;;;3.90;99.90;;;;;;5072257;28;20067;-74
2021/12/01 02:16:19;;;;;;;1.67;1.20;;;3.90;99.90;;;;;;5070832;28;20018;-74
2021/12/01 02:18:46;;;;;;;2.30;1.60;;;4.00;99.90;;;;;;5070309;28;20140;-73
2021/12/01 02:21:27;;;;;;;1.40;1.00;;;3.90;99.90;;;;;;5070292;28;20123;-73
2021/12/01 02:24:04;;;;;;;2.20;1.60;;;3.90;99.90;;;;;;5053196;28;20540;-74
2021/12/01 02:26:44;;;;;;;1.50;1.10;;;3.90;99.90;;;;;;5071268;28;20063;-74
2021/12/01 02:29:19;;;;;;;2.03;1.45;;;3.90;99.90;;;;;;5070138;28;20048;-74
2021/12/01 02:31:51;;;;;;;1.45;1.15;;;3.90;99.90;;;;;;5071685;28;20037;-73
2021/12/01 02:34:24;;;;;;;2.17;1.55;;;4.00;99.90;;;;;;5070185;28;20396;-74
2021/12/01 02:36:55;;;;;;;1.80;1.30;;;4.00;99.90;;;;;;5070436;28;20040;-73
2021/12/01 02:39:22;;;;;;;1.60;1.45;;;4.00;99.90;;;;;;5070330;28;20109;-74
2021/12/01 02:41:57;;;;;;;2.42;1.35;;;4.00;99.90;;;;;;5054552;28;20055;-74
2021/12/01 02:44:29;;;;;;;1.23;1.10;;;4.00;99.90;;;;;;5071454;28;20123;-73
2021/12/01 02:47:02;;;;;;;2.22;1.48;;;4.00;99.90;;;;;;5069678;28;20040;-72
2021/12/01 02:49:31;;;;;;;2.65;1.65;;;4.00;99.90;;;;;;5070350;28;20119;-74
2021/12/01 02:52:05;;;;;;;1.60;1.30;;;4.00;99.90;;;;;;5071441;28;20307;-74
2021/12/01 02:54:32;;;;;;;1.77;1.20;;;4.00;99.90;;;;;;5053288;28;20127;-74
2021/12/01 02:57:00;;;;;;;1.92;1.40;;;4.00;99.90;;;;;;5070360;28;20119;-74
2021/12/01 02:59:32;;;;;;;1.75;1.45;;;4.00;99.90;;;;;;5070525;28;20036;-73
2021/12/01 03:02:00;;;;;;;2.50;1.80;;;4.00;99.90;;;;;;5071211;28;20076;-73
2021/12/01 03:04:34;;;;;;;2.00;1.42;;;4.00;99.90;;;;;;5071206;28;20127;-73
2021/12/01 03:07:07;;;;;;;2.00;1.50;;;4.00;99.90;;;;;;5070121;28;20045;-73
2021/12/01 03:09:39;;;;;;;2.72;1.75;;;4.00;99.90;;;;;;5070256;28;20566;-73
2021/12/01 03:12:10;;;;;;;2.20;1.80;;;4.00;99.90;;;;;;5053348;28;20148;-73
2021/12/01 03:14:37;;;;;;;2.20;1.73;;;4.00;99.90;;;;;;5071843;28;20154;-73
2021/12/01 03:17:05;;;;;;;2.80;2.38;;;4.00;99.90;;;;;;5074216;28;20056;-73
2021/12/01 03:19:37;;;;;;;2.33;1.70;;;4.00;99.90;;;;;;5061897;28;20123;-73
2021/12/01 03:22:05;;;;;;;2.08;1.70;;;4.10;99.90;;;;;;5077307;28;20780;-73
2021/12/01 03:24:37;;;;;;;1.80;1.52;;;4.10;99.90;;;;;;5075094;28;20040;-73
2021/12/01 03:27:04;;;;;;;2.50;2.03;;;4.00;99.90;;;;;;5074021;28;20493;-73
2021/12/01 03:29:35;;;;;;;2.40;1.67;;;4.00;99.90;;;;;;5074123;28;20115;-73
2021/12/01 03:32:08;;;;;;;1.75;1.65;;;4.00;99.90;;;;;;5073895;28;20135;-73
2021/12/01 03:34:35;;;;;;;2.00;1.63;;;4.00;99.90;;;;;;5073515;28;20076;-73
2021/12/01 03:37:07;;;;;;;2.45;1.90;;;4.00;99.90;;;;;;5073816;28;20127;-74
2021/12/01 03:39:39;;;;;;;2.75;1.80;;;3.90;99.90;;;;;;5074974;28;20037;-73
2021/12/01 03:42:06;;;;;;;2.17;1.65;;;3.90;99.90;;;;;;5073579;28;20467;-74
2021/12/01 03:44:40;;;;;;;2.85;1.90;;;4.00;99.90;;;;;;5074534;28;20052;-73
2021/12/01 03:47:13;;;;;;;2.72;1.90;;;4.00;99.90;;;;;;5074873;28;20131;-73
2021/12/01 03:49:45;;;;;;;2.10;1.52;;;4.00;99.90;;;;;;5075007;28;20055;-73
2021/12/01 03:52:17;;;;;;;2.67;1.98;;;4.00;99.90;;;;;;5074522;28;20135;-73
2021/12/01 03:54:47;;;;;;;2.70;1.98;;;4.00;99.90;;;;;;5073104;28;20243;-73
2021/12/01 03:57:19;;;;;;;1.90;1.70;;;4.00;99.90;;;;;;5073420;28;20049;-73
2021/12/01 03:59:53;;;;;;;1.98;1.63;;;4.00;99.90;;;;;;5058011;28;20430;-73
2021/12/01 04:02:26;;;;;;;2.88;2.15;;;4.00;99.90;;;;;;5073377;28;20506;-74
2021/12/01 04:04:58;;;;;;;3.00;2.08;;;4.00;99.90;;;;;;5073029;28;20139;-73
2021/12/01 04:07:25;;;;;;;2.35;1.73;;;4.10;99.90;;;;;;5073208;28;20455;-73
2021/12/01 04:09:57;;;;;;;2.13;1.60;;;4.10;99.90;;;;;;5073248;28;20128;-73
2021/12/01 04:12:24;;;;;;;2.13;1.48;;;4.10;99.90;;;;;;5048920;28;20214;-73
2021/12/01 04:14:51;;;;;;;2.88;2.03;;;4.20;99.90;;;;;;5043522;28;20472;-73
2021/12/01 04:17:24;;;;;;;2.72;2.00;;;4.20;99.90;;;;;;5052670;28;20487;-73
2021/12/01 04:19:56;;;;;;;2.90;1.88;;;4.20;99.90;;;;;;5052721;28;20067;-73
2021/12/01 04:22:23;;;;;;;2.80;2.00;;;4.20;99.90;;;;;;5051227;28;20069;-73
2021/12/01 04:24:49;;;;;;;2.03;1.70;;;4.20;99.90;;;;;;5051049;28;20490;-73
2021/12/01 04:27:21;;;;;;;3.65;2.10;;;4.20;99.90;;;;;;5052508;28;20065;-73
2021/12/01 04:29:53;;;;;;;2.65;1.65;;;4.20;99.90;;;;;;5051534;28;20136;-73
2021/12/01 04:32:21;;;;;;;3.40;2.00;;;4.20;99.90;;;;;;5051489;28;20460;-73
2021/12/01 04:34:48;;;;;;;2.90;2.15;;;4.20;99.90;;;;;;5050773;28;20111;-73
2021/12/01 04:37:24;;;;;;;2.65;2.13;;;4.20;99.90;;;;;;5049445;28;20455;-73
2021/12/01 04:39:57;;;;;;;3.05;2.00;;;4.30;99.90;;;;;;5050608;28;20045;-73
2021/12/01 04:42:30;;;;;;;3.47;2.00;;;4.30;99.90;;;;;;5052413;28;20047;-73
2021/12/01 04:45:04;;;;;;;3.10;2.17;;;4.30;99.90;;;;;;5050513;28;20506;-73
2021/12/01 04:47:37;;;;;;;3.30;2.22;;;4.20;99.90;;;;;;5050623;28;20041;-73
2021/12/01 04:50:11;;;;;;;2.97;2.42;;;4.20;99.90;;;;;;5052177;28;20562;-73
2021/12/01 04:52:43;;;;;;;3.47;2.55;;;4.20;99.90;;;;;;5050544;28;20419;-73
2021/12/01 04:55:16;;;;;;;3.30;2.33;;;4.20;99.90;;;;;;5050424;28;20064;-73
2021/12/01 04:57:49;;;;;;;4.22;2.63;;;4.20;99.90;;;;;;5050871;28;20140;-73
2021/12/01 05:00:26;;;;;;;3.22;2.58;;;4.20;99.90;;;;;;5051965;28;20047;-74
2021/12/01 05:02:58;;;;;;;4.57;2.92;;;4.20;99.90;;;;;;5050872;28;20044;-73
2021/12/01 05:05:25;;;;;;;3.72;3.15;;;4.10;99.90;;;;;;5050497;28;20072;-73
2021/12/01 05:08:01;;;;;;;4.13;3.30;;;4.10;99.90;;;;;;4997915;28;1073912;-74
2021/12/01 05:10:33;;;;;;;3.90;2.92;;;4.10;99.90;;;;;;5051534;28;20140;-74
2021/12/01 05:13:02;;;;;;;3.55;2.80;;;4.20;99.90;;;;;;5051719;28;20056;-77
2021/12/01 05:15:34;;;;;;;4.32;2.42;;;4.10;99.90;;;;;;5058358;28;20051;-73
2021/12/01 05:18:08;;;;;;;3.28;2.70;;;4.10;99.90;;;;;;5067027;28;20436;-73
2021/12/01 05:20:39;;;;;;;4.53;3.50;;;4.10;99.90;;;;;;5048763;28;20466;-73
2021/12/01 05:23:15;;;;;;;3.67;2.92;;;4.10;99.90;;;;;;5053215;28;20048;-73
2021/12/01 05:25:44;;;;;;;4.00;2.85;;;4.10;99.90;;;;;;5058429;28;20106;-73
2021/12/01 05:28:12;;;;;;;4.05;2.70;;;4.10;99.90;;;;;;5049998;28;20127;-73
2021/12/01 05:30:45;;;;;;;4.32;3.17;;;4.10;99.90;;;;;;5038676;28;20436;-73
2021/12/01 05:33:14;;;;;;;4.45;3.22;;;4.20;99.90;;;;;;5030192;28;20065;-73
2021/12/01 05:35:46;;;;;;;3.40;3.10;;;4.20;99.90;;;;;;5030039;28;20492;-73
2021/12/01 05:38:14;;;;;;;3.35;3.00;;;4.10;99.90;;;;;;5048414;28;20088;-73
2021/12/01 05:40:50;;;;;;;4.00;3.15;;;4.20;99.90;;;;;;5049734;28;20713;-73
2021/12/01 05:43:20;;;;;;;4.95;3.17;;;4.20;99.90;;;;;;5050305;28;20307;-73
2021/12/01 05:45:52;;;;;;;6.57;3.45;;;4.20;99.90;;;;;;5033553;28;20410;-73
2021/12/01 05:48:23;;;;;;;4.70;2.72;;;4.30;99.90;;;;;;5049988;28;20457;-73
2021/12/01 05:50:50;;;;;;;4.15;2.80;;;4.30;99.90;;;;;;5051098;28;20079;-73
2021/12/01 05:53:22;;;;;;;5.38;2.70;;;4.30;99.90;;;;;;5050145;28;20095;-73
2021/12/01 05:55:51;;;;;;;3.25;2.78;;;4.30;99.90;;;;;;5033593;28;20036;-73
2021/12/01 05:58:18;;;;;;;3.42;2.63;;;4.30;99.90;;;;;;5050725;28;20049;-73
2021/12/01 06:00:52;;;;;;;3.85;3.10;;;4.30;99.90;;;;;;5050431;28;20417;-73
2021/12/01 06:03:19;;;;;;;2.72;2.47;;;4.30;99.90;;;;;;5033971;28;20049;-73
2021/12/01 06:05:51;;;;;;;3.60;2.58;;;4.30;99.90;;;;;;5051442;28;20468;-73
2021/12/01 06:08:20;;;;;;;3.72;2.88;;;4.20;99.90;;;;;;5050964;28;20053;-73
2021/12/01 06:10:52;;;;;;;2.50;2.28;;;4.20;99.90;;;;;;5034701;28;20463;-73
2021/12/01 06:13:21;;;;;;;2.75;2.45;;;4.20;99.90;;;;;;5050273;28;20095;-73
2021/12/01 06:15:56;;;;;;;3.42;2.40;;;4.20;99.90;;;;;;5055098;28;20238;-73
2021/12/01 06:18:30;;;;;;;2.50;2.20;;;4.20;99.90;;;;;;5052644;28;20111;-73
2021/12/01 06:20:58;;;;;;;2.97;2.28;;;4.20;99.90;;;;;;5050269;28;20041;-73
2021/12/01 06:23:32;;;;;;;4.05;2.38;;;4.30;99.90;;;;;;5034833;28;20041;-73
2021/12/01 06:25:58;;;;;;;2.70;2.00;;;4.30;99.90;;;;;;5033334;28;20144;-73
2021/12/01 06:28:25;;;;;;;2.67;2.17;;;4.30;99.90;;;;;;5033613;28;20048;-73
2021/12/01 06:30:58;;;;;;;2.65;2.05;;;4.30;99.90;;;;;;5050167;28;20044;-73
2021/12/01 06:33:25;;;;;;;2.72;1.70;;;4.40;99.90;;;;;;5049973;28;20393;-73
2021/12/01 06:35:52;;;;;;;3.08;2.03;;;4.30;99.90;;;;;;5049650;28;20587;-73
2021/12/01 06:38:19;;;;;;;2.00;1.55;;;4.30;99.90;;;;;;5033487;28;20060;-73
2021/12/01 06:40:51;;;;;;;2.38;1.83;;;4.40;99.90;;;;;;5049869;28;20140;-73
2021/12/01 06:43:23;;;;;;;1.75;1.50;;;4.40;99.90;;;;;;5034104;28;20467;-73
2021/12/01 06:45:56;;;;;;;2.67;1.38;;;4.40;99.90;;;;;;5049990;28;20052;-73
2021/12/01 06:48:23;;;;;;;1.60;1.42;;;4.40;99.90;;;;;;5049599;28;20073;-73
2021/12/01 06:50:52;;;;;;;3.03;1.17;;;4.50;99.90;;;;;;5049847;28;20053;-73
2021/12/01 06:53:19;;;;;;;1.45;1.30;;;4.50;99.90;;;;;;5049359;28;20563;-73
2021/12/01 06:55:47;;;;;;;2.70;1.80;;;4.60;99.90;;;;;;5050995;28;20049;-73
2021/12/01 06:58:15;;;;;;;1.90;1.45;;;4.50;99.90;;;;;;5049780;28;20053;-73
2021/12/01 07:00:47;;;;;;;1.83;1.48;;;4.50;99.90;;;;;;5049880;28;20041;-73
2021/12/01 07:03:20;;;;;;;1.88;1.60;;;4.50;99.90;;;;;;5033901;28;20131;-73
2021/12/01 07:05:51;;;;;;;2.23;1.50;;;4.50;99.90;;;;;;5051232;28;20135;-72
2021/12/01 07:08:24;;;;;;;1.50;1.20;;;4.40;99.90;;;;;;5051449;28;20770;-72
2021/12/01 07:10:55;;;;;;;2.13;1.40;;;4.40;99.90;;;;;;5050420;28;20044;-73
2021/12/01 07:13:31;;;;;;;2.10;1.27;;;4.40;99.90;;;;;;5050188;28;20047;-72
2021/12/01 07:16:04;;;;;;;1.88;1.38;;;4.40;99.90;;;;;;5051776;28;20064;-73
2021/12/01 07:18:36;;;;;;;2.53;1.50;;;4.50;99.90;;;;;;5034394;28;20128;-72
2021/12/01 07:21:08;;;;;;;1.80;1.30;;;4.50;99.90;;;;;;5050137;28;20135;-72
2021/12/01 07:23:35;;;;;;;1.75;1.40;;;4.40;99.90;;;;;;5051485;28;20379;-72
2021/12/01 07:26:07;;;;;;;3.47;1.33;;;4.40;99.90;;;;;;5050013;28;20057;-73
2021/12/01 07:28:36;;;;;;;1.55;1.13;;;4.40;99.90;;;;;;5050140;28;20041;-72
2021/12/01 07:31:08;;;;;;;1.55;1.30;;;4.40;99.90;;;;;;5050134;28;20055;-73
2021/12/01 07:33:40;;;;;;;1.77;1.20;;;4.50;99.90;;;;;;5049767;28;20135;-72
2021/12/01 07:36:12;;;;;;;2.60;1.13;;;4.50;99.90;;;;;;5049429;28;20039;-73
2021/12/01 07:38:43;;;;;;;1.80;1.42;;;4.50;99.90;;;;;;5049537;28;20045;-72
2021/12/01 07:41:20;;;;;;;1.92;1.25;;;4.50;99.90;;;;;;5049624;28;20049;-74
2021/12/01 07:43:47;;;;;;;1.30;1.20;;;4.50;99.90;;;;;;5049970;28;20136;-72
2021/12/01 07:46:24;;;;;;;2.15;1.85;;;4.50;99.90;;;;;;5049688;28;20136;-73
2021/12/01 07:48:51;;;;;;;1.35;1.05;;;4.50;99.90;;;;;;5049228;28;20112;-73
2021/12/01 07:51:22;;;;;;;2.35;1.48;;;4.50;99.90;;;;;;5047929;28;20133;-75
2021/12/01 07:53:55;;;;;;;1.58;1.10;;;4.40;99.90;;;;;;5049599;28;20134;-73
2021/12/01 07:56:26;;;;;;;1.70;1.35;;;4.50;99.90;;;;;;5032218;28;20076;-72
2021/12/01 07:58:58;;;;;;;1.98;1.52;;;4.50;99.90;;;;;;5048722;28;20120;-73
2021/12/01 08:01:31;;;;;;;1.43;1.33;;;4.40;99.90;;;;;;5049647;28;20139;-74
2021/12/01 08:03:59;;;;;;;2.13;1.17;;;4.50;99.90;;;;;;5053176;28;20087;-73
2021/12/01 08:06:33;;;;;;;1.88;1.50;;;4.50;99.90;;;;;;5051847;28;20128;-73
2021/12/01 08:09:07;;;;;;;1.90;1.30;;;4.50;99.90;;;;;;5051561;28;20140;-73
2021/12/01 08:11:34;;;;;;;2.00;1.67;;;4.50;99.90;;;;;;5052942;28;20538;-72
2021/12/01 08:14:06;;;;;;;1.85;1.38;;;4.60;99.90;;;;;;5036147;28;20051;-72
2021/12/01 08:16:37;;;;;;;1.67;1.27;;;4.60;99.90;;;;;;5036411;28;20466;-72
2021/12/01 08:19:09;;;;;;;1.80;1.42;;;4.60;99.90;;;;;;5037393;28;20573;-72
2021/12/01 08:21:46;;;;;;;2.28;1.60;;;4.60;99.90;;;;;;5053670;28;20037;-73
2021/12/01 08:24:19;;;;;;;1.83;1.38;;;4.60;99.90;;;;;;5053637;28;20073;-72
2021/12/01 08:26:52;;;;;;;1.90;1.50;;;4.70;99.90;;;;;;5053955;28;20131;-73
2021/12/01 08:29:18;;;;;;;1.73;1.35;;;4.70;99.90;;;;;;5052134;28;20135;-72
2021/12/01 08:31:46;;;;;;;2.20;1.33;;;4.70;99.90;;;;;;5052561;28;20076;-73
2021/12/01 08:34:18;;;;;;;1.92;1.38;;;4.80;99.90;;;;;;5036516;28;20510;-72
2021/12/01 08:36:51;;;;;;;1.77;1.33;;;4.90;99.90;;;;;;5052505;28;20041;-73
2021/12/01 08:39:24;;;;;;;1.40;1.27;;;5.10;99.90;;;;;;5036394;28;20522;-72
2021/12/01 08:41:51;;;;;;;3.08;1.20;;;5.20;99.90;;;;;;5052071;28;20116;-72
2021/12/01 08:44:23;;;;;;;1.50;1.00;;;5.20;99.90;;;;;;5052201;28;20048;-73
2021/12/01 08:46:49;;;;;;;1.75;1.55;;;5.20;99.90;;;;;;5052434;28;20049;-73
2021/12/01 08:49:16;;;;;;;1.48;1.25;;;5.30;99.90;;;;;;5052913;28;20049;-73
2021/12/01 08:51:48;;;;;;;1.83;1.30;;;5.40;99.90;;;;;;5051757;28;20044;-72
2021/12/01 08:54:20;;;;;;;1.70;1.00;;;5.40;99.90;;;;;;5051338;28;20037;-72
2021/12/01 08:56:47;;;;;;;1.17;0.95;;;5.40;99.90;;;;;;5051395;28;20605;-74
2021/12/01 08:59:19;;;;;;;1.92;1.20;;;5.50;99.90;;;;;;5051377;28;20132;-73
2021/12/01 09:01:45;;;;;;;1.65;1.17;;;5.50;99.90;;;;;;5051136;28;20104;-73
2021/12/01 09:04:18;;;;;;;2.60;1.33;;;5.50;99.90;;;;;;5053022;28;20041;-72
2021/12/01 09:06:50;;;;;;;1.73;1.15;;;5.50;99.90;;;;;;5051510;28;20515;-73
2021/12/01 09:09:22;;;;;;;1.52;1.08;;;5.50;99.90;;;;;;5052903;28;20041;-73
2021/12/01 09:11:51;;;;;;;1.70;0.93;;;5.50;99.90;;;;;;5053085;28;20098;-74
2021/12/01 09:14:24;;;;;;;2.42;1.05;;;5.50;99.90;;;;;;5053279;28;20068;-73
2021/12/01 09:16:56;;;;;;;2.33;1.35;;;5.60;99.90;;;;;;5053630;28;20112;-74
2021/12/01 09:19:28;;;;;;;1.20;1.10;;;5.60;99.90;;;;;;5051826;28;20071;-74
2021/12/01 09:21:59;;;;;;;1.40;1.00;;;5.70;99.90;;;;;;5051288;28;20041;-74
2021/12/01 09:24:31;;;;;;;1.13;0.90;;;5.70;99.90;;;;;;5051143;28;20462;-74
2021/12/01 09:26:58;;;;;;;0.68;0.65;;;5.80;99.90;;;;;;5051429;28;20056;-74
2021/12/01 09:29:27;;;;;;;2.20;1.05;;;5.80;99.90;;;;;;5051151;28;20080;-73
2021/12/01 09:32:01;;;;;;;2.05;0.70;;;5.90;99.90;;;;;;5034969;28;20116;-74
2021/12/01 09:34:33;;;;;;;0.75;0.75;;;5.90;99.90;;;;;;5034755;28;20072;-74
2021/12/01 09:37:06;;;;;;;1.60;1.00;;;6.00;99.90;;;;;;5050970;28;20140;-74
2021/12/01 09:39:33;;;;;;;0.95;0.80;;;6.00;99.90;;;;;;5052121;28;20061;-74
2021/12/01 09:42:06;;;;;;;2.00;0.90;;;6.10;99.90;;;;;;5051072;28;20099;-74
2021/12/01 09:44:33;;;;;;;1.48;0.80;;;6.10;99.90;;;;;;5050256;28;20500;-73
2021/12/01 09:46:59;;;;;;;1.48;0.82;;;6.10;99.90;;;;;;5050997;28;20091;-74
2021/12/01 09:49:32;;;;;;;1.13;0.80;;;6.10;99.90;;;;;;5051127;28;20095;-74
2021/12/01 09:52:04;;;;;;;1.23;0.70;;;6.20;99.90;;;;;;5051299;28;20519;-73
2021/12/01 09:54:31;;;;;;;1.23;0.90;;;6.20;99.90;;;;;;5034458;28;20056;-72
2021/12/01 09:57:03;;;;;;;1.50;0.88;;;6.30;99.90;;;;;;5052466;28;20495;-73
2021/12/01 09:59:30;;;;;;;0.80;0.80;;;6.40;99.90;;;;;;5052220;28;20057;-75
2021/12/01 10:02:02;;;;;;;0.75;0.60;;;6.40;99.90;;;;;;5051253;28;20522;-75
2021/12/01 10:04:29;;;;;;;1.15;0.77;;;6.50;99.90;;;;;;5052293;28;20131;-74
2021/12/01 10:07:18;;;;;;;2.17;1.13;;;6.60;99.90;;;;;;5050941;28;20075;-74
2021/12/01 10:09:56;;;;;;;1.23;0.80;;;6.60;99.90;;;;;;5050662;28;20053;-74
2021/12/01 10:12:24;;;;;;;1.15;0.77;;;6.70;99.90;;;;;;5051465;28;20065;-74
2021/12/01 10:14:52;;;;;;;1.23;0.95;;;6.70;99.90;;;;;;5049791;28;20037;-74
2021/12/01 10:17:34;;;;;;;0.80;0.77;;;6.80;99.90;;;;;;5050309;28;20037;-73
2021/12/01 10:20:14;;;;;;;1.58;0.80;;;6.90;99.90;;;;;;5050479;28;20113;-74
2021/12/01 10:23:06;;;;;;;1.17;0.85;;;6.90;99.90;;;;;;5051265;28;20108;-74
2021/12/01 10:25:33;;;;;;;1.15;0.70;;;7.10;99.90;;;;;;5049754;28;20049;-74
2021/12/01 10:28:05;;;;;;;1.52;0.90;;;7.10;99.90;;;;;;5051280;28;20069;-74
2021/12/01 10:30:45;;;;;;;1.05;0.80;;;7.10;99.90;;;;;;5050177;28;20484;-74
2021/12/01 10:33:17;;;;;;;1.10;0.88;;;7.20;99.90;;;;;;5051119;28;20048;-74
2021/12/01 10:35:49;;;;;;;1.38;0.88;;;7.20;99.90;;;;;;5049539;28;20048;-72
2021/12/01 10:38:32;;;;;;;1.20;0.80;;;7.20;99.90;;;;;;5049875;28;20291;-74
2021/12/01 10:41:13;;;;;;;1.35;0.90;;;7.40;99.90;;;;;;5050000;28;20037;-74
2021/12/01 10:43:44;;;;;;;1.35;0.90;;;7.50;99.90;;;;;;5049655;28;20516;-74
2021/12/01 10:46:18;;;;;;;1.40;1.00;;;7.60;99.90;;;;;;5049441;28;20045;-72
2021/12/01 10:49:03;;;;;;;0.98;0.73;;;7.70;99.90;;;;;;5049757;28;20137;-73
2021/12/01 10:51:39;;;;;;;1.38;0.90;;;7.60;99.90;;;;;;5051988;28;20095;-72
2021/12/01 10:54:20;;;;;;;1.23;0.98;;;7.60;99.90;;;;;;5051020;28;20045;-74
2021/12/01 10:57:07;;;;;;;1.40;0.70;;;7.50;99.90;;;;;;5050713;28;20064;-74
2021/12/01 10:59:44;;;;;;;1.75;1.10;;;7.50;99.90;;;;;;5049350;28;20135;-74
2021/12/01 11:02:17;;;;;;;2.10;1.02;;;7.40;99.90;;;;;;5049656;28;20041;-74
2021/12/01 11:04:51;;;;;;;1.60;1.08;;;7.40;99.90;;;;;;5049284;28;20087;-74
2021/12/01 11:07:28;;;;;;;1.90;0.88;;;7.40;99.90;;;;;;5033766;28;20049;-73
2021/12/01 11:10:11;;;;;;;1.85;0.95;;;7.30;99.90;;;;;;5049993;28;20128;-75
2021/12/01 11:12:39;;;;;;;1.23;0.95;;;7.40;99.90;;;;;;5048828;28;20041;-74
2021/12/01 11:15:17;;;;;;;1.20;1.00;;;7.40;99.90;;;;;;5050260;28;20065;-72
2021/12/01 11:17:50;;;;;;;1.23;0.80;;;7.30;99.90;;;;;;5049762;28;20037;-74
2021/12/01 11:20:38;;;;;;;1.03;0.80;;;7.40;99.90;;;;;;5033789;28;20326;-75
2021/12/01 11:23:16;;;;;;;1.70;1.20;;;7.40;99.90;;;;;;5050060;28;20322;-74
2021/12/01 11:25:49;;;;;;;1.80;1.08;;;7.30;99.90;;;;;;5050628;28;20140;-74
2021/12/01 11:28:25;;;;;;;0.85;0.70;;;7.40;99.90;;;;;;5049835;28;20076;-74
2021/12/01 11:30:56;;;;;;;1.33;0.90;;;7.40;99.90;;;;;;5049440;28;20053;-74
2021/12/01 11:33:29;;;;;;;1.20;0.77;;;7.40;99.90;;;;;;5049521;28;20048;-74
2021/12/01 11:36:05;;;;;;;0.82;0.80;;;7.40;99.90;;;;;;5052092;28;20049;-74
2021/12/01 11:38:37;;;;;;;1.00;0.90;;;7.50;99.90;;;;;;5037562;28;20036;-72
2021/12/01 11:41:07;;;;;;;2.70;1.95;;;7.50;99.90;;;;;;5053456;28;20087;-75
2021/12/01 11:43:39;;;;;;;1.60;1.15;;;7.50;99.90;;;;;;5054812;28;20434;-74
2021/12/01 11:46:11;;;;;;;1.00;0.70;;;7.50;99.90;;;;;;5053581;28;20419;-75
2021/12/01 11:48:43;;;;;;;1.10;0.95;;;7.60;99.90;;;;;;5053667;28;20048;-73
2021/12/01 11:51:33;;;;;;;1.05;0.70;;;7.60;99.90;;;;;;5051824;28;20151;-74
2021/12/01 11:54:13;;;;;;;0.80;0.50;;;7.70;99.90;;;;;;5052587;28;20072;-74
2021/12/01 11:57:00;;;;;;;1.63;0.60;;;7.80;99.90;;;;;;5051545;28;20051;-73
2021/12/01 11:59:37;;;;;;;1.02;0.90;;;7.80;99.90;;;;;;5031533;28;20583;-73
2021/12/01 12:02:15;;;;;;;0.70;0.50;;;7.90;99.90;;;;;;5031218;28;20607;-74
2021/12/01 12:04:52;;;;;;;2.80;0.80;;;7.90;99.90;;;;;;5031274;28;20133;-74
2021/12/01 12:07:27;;;;;;;0.93;0.40;;;8.00;99.90;;;;;;5017883;28;20104;-74
2021/12/01 12:10:07;;;;;;;0.50;0.40;;;8.10;99.90;;;;;;5034102;28;20065;-73
2021/12/01 12:13:08;;;;;;;0.88;0.70;;;8.10;99.90;;;;;;5033810;28;20135;-74
2021/12/01 12:15:35;;;;;;;0.82;0.60;;;8.20;99.90;;;;;;5032422;28;20080;-74
2021/12/01 12:18:10;;;;;;;0.83;0.40;;;8.30;99.90;;;;;;5032799;28;20069;-75
2021/12/01 12:20:45;;;;;;;0.60;0.40;;;8.30;99.90;;;;;;5016495;28;20045;-74
2021/12/01 12:23:19;;;;;;;0.77;0.60;;;8.40;99.90;;;;;;5016635;28;20064;-72
2021/12/01 12:25:53;;;;;;;2.30;0.55;;;8.30;99.90;;;;;;5040466;28;20148;-73
2021/12/01 12:28:31;;;;;;;1.30;0.73;;;8.40;99.90;;;;;;5031911;28;20073;-72
2021/12/01 12:31:20;;;;;;;0.60;0.50;;;8.40;99.90;;;;;;5031588;28;20135;-73
2021/12/01 12:33:51;;;;;;;;;;;8.50;99.90;;;;;;5033750;28;20124;-73
2021/12/01 12:36:55;;;;;;;1.85;0.65;;;8.50;99.90;;;;;;5032492;28;20023;-72
2021/12/01 12:39:32;;;;;;;1.08;0.60;;;8.40;99.90;;;;;;5032531;28;20308;-72
2021/12/01 12:42:08;;;;;;;2.47;0.90;;;8.40;99.90;;;;;;5031358;28;20595;-73
2021/12/01 12:44:55;;;;;;;0.93;0.60;;;8.40;99.90;;;;;;5015182;28;20072;-74
2021/12/01 12:47:39;;;;;;;1.02;0.70;;;8.40;99.90;;;;;;5032449;28;20049;-72
2021/12/01 12:50:20;;;;;;;1.13;0.65;;;8.30;99.90;;;;;;5033122;28;20116;-72
2021/12/01 12:52:55;;;;;;;1.50;0.90;;;8.30;99.90;;;;;;5031447;28;20611;-72
2021/12/01 12:55:30;;;;;;;0.77;0.70;;;8.30;99.90;;;;;;5032381;28;20124;-72
2021/12/01 12:58:04;;;;;;;1.50;0.90;;;8.20;99.90;;;;;;5015486;28;20041;-73
2021/12/01 13:00:35;;;;;;;1.23;0.90;;;8.20;99.90;;;;;;5031276;28;20080;-72
2021/12/01 13:03:23;;;;;;;1.08;0.80;;;8.10;99.90;;;;;;5032441;28;20141;-73
2021/12/01 13:05:57;;;;;;;1.30;0.90;;;8.10;99.90;;;;;;5032406;28;20124;-73
2021/12/01 13:08:36;;;;;;;1.17;0.80;;;8.10;99.90;;;;;;5032256;28;20038;-73
2021/12/01 13:11:19;;;;;;;1.40;0.90;;;8.10;99.90;;;;;;5015067;28;20128;-73
2021/12/01 13:13:57;;;;;;;2.35;0.85;;;8.10;99.90;;;;;;5031620;28;20128;-73
2021/12/01 13:16:29;;;;;;;1.38;0.90;;;8.10;99.90;;;;;;5032294;28;20129;-73
2021/12/01 13:19:07;;;;;;;1.17;0.80;;;8.00;99.90;;;;;;5030619;28;20144;-73
2021/12/01 13:21:39;;;;;;;1.40;0.90;;;8.00;99.90;;;;;;5015266;28;20038;-74
2021/12/01 13:24:11;;;;;;;1.42;1.05;;;8.00;99.90;;;;;;5015303;28;20097;-74
2021/12/01 13:26:42;;;;;;;1.40;0.95;;;8.00;99.90;;;;;;5030687;28;20116;-73
2021/12/01 13:29:17;;;;;;;0.77;0.60;;;8.00;99.90;;;;;;5030576;28;20071;-73
2021/12/01 13:31:49;;;;;;;1.13;0.95;;;8.00;99.90;;;;;;5030444;28;20128;-73